sensor_id;sensor_type;location;lat;lon;timestamp;temperature;humidity
45735;DHT22;31446;49.632;8.328;2023-02-14T00:13:01;1.90;99.90
45735;DHT22;31446;49.632;8.328;2023-02-14T00:28:07;1.70;99.90
45735;DHT22;31446;49.632;8.328;2023-02-14T00:43:13;1.60;99.90
45735;DHT22;31446;49.632;8.328;2023-02-14T00:58:19;1.40;99.90
45735;DHT22;31446;49.632;8.328;2023-02-14T01:13:25;1.20;99.90
45735;DHT22;31446;49.632;8.328;2023-02-14T01:28:32;1.20;99.90
45735;DHT22;31446;49.632;8.328;2023-02-14T01:43:55;1.10;99.90
45735;DHT22;31446;49.632;8.328;2023-02-14T01:59:02;1.10;99.90
45735;DHT22;31446;49.632;8.328;2023-02-14T02:14:13;1.10;99.90
45735;DHT22;31446;49.632;8.328;2023-02-14T02:45:12;0.60;99.90
45735;DHT22;31446;49.632;8.328;2023-02-14T03:00:23;0.60;99.90
45735;DHT22;31446;49.632;8.328;2023-02-14T03:15:38;0.50;99.90
45735;DHT22;31446;49.632;8.328;2023-02-14T03:30:52;0.30;99.90
45735;DHT22;31446;49.632;8.328;2023-02-14T03:46:05;0.00;99.90
45735;DHT22;31446;49.632;8.328;2023-02-14T04:01:20;-0.10;99.90
45735;DHT22;31446;49.632;8.328;2023-02-14T04:16:26;-0.10;99.90
45735;DHT22;31446;49.632;8.328;2023-02-14T04:31:32;-0.30;99.90
45735;DHT22;31446;49.632;8.328;2023-02-14T04:46:38;-0.30;99.90
45735;DHT22;31446;49.632;8.328;2023-02-14T05:01:44;0.20;99.90
45735;DHT22;31446;49.632;8.328;2023-02-14T05:16:50;0.60;99.90
45735;DHT22;31446;49.632;8.328;2023-02-14T05:31:57;0.60;99.90
45735;DHT22;31446;49.632;8.328;2023-02-14T05:47:03;0.60;99.90
45735;DHT22;31446;49.632;8.328;2023-02-14T06:02:09;0.70;99.90
45735;DHT22;31446;49.632;8.328;2023-02-14T06:17:16;0.80;99.90
45735;DHT22;31446;49.632;8.328;2023-02-14T06:32:22;1.00;99.90
45735;DHT22;31446;49.632;8.328;2023-02-14T06:47:28;1.10;99.90
45735;DHT22;31446;49.632;8.328;2023-02-14T07:02:35;1.20;99.90
45735;DHT22;31446;49.632;8.328;2023-02-14T07:17:41;1.40;99.90
45735;DHT22;31446;49.632;8.328;2023-02-14T07:32:50;1.40;99.90
45735;DHT22;31446;49.632;8.328;2023-02-14T07:48:00;1.30;99.90
45735;DHT22;31446;49.632;8.328;2023-02-14T08:03:06;1.60;99.90
45735;DHT22;31446;49.632;8.328;2023-02-14T08:18:12;2.10;99.90
45735;DHT22;31446;49.632;8.328;2023-02-14T08:33:20;2.10;99.90
45735;DHT22;31446;49.632;8.328;2023-02-14T08:48:26;2.50;99.90
45735;DHT22;31446;49.632;8.328;2023-02-14T09:03:33;2.70;99.90
45735;DHT22;31446;49.632;8.328;2023-02-14T09:18:39;3.10;99.90
45735;DHT22;31446;49.632;8.328;2023-02-14T09:33:46;3.10;99.90
45735;DHT22;31446;49.632;8.328;2023-02-14T09:48:54;3.30;99.90
45735;DHT22;31446;49.632;8.328;2023-02-14T10:04:23;3.80;99.90
45735;DHT22;31446;49.632;8.328;2023-02-14T10:19:35;3.80;99.90
45735;DHT22;31446;49.632;8.328;2023-02-14T10:34:45;3.50;99.90
45735;DHT22;31446;49.632;8.328;2023-02-14T10:49:57;3.80;99.90
45735;DHT22;31446;49.632;8.328;2023-02-14T11:05:22;3.60;99.90
45735;DHT22;31446;49.632;8.328;2023-02-14T11:20:29;3.90;99.90
45735;DHT22;31446;49.632;8.328;2023-02-14T11:35:35;4.20;99.90
45735;DHT22;31446;49.632;8.328;2023-02-14T11:50:43;4.00;99.90
45735;DHT22;31446;49.632;8.328;2023-02-14T12:05:58;3.90;99.90
45735;DHT22;31446;49.632;8.328;2023-02-14T12:36:43;4.30;99.90
45735;DHT22;31446;49.632;8.328;2023-02-14T12:52:00;4.40;99.90
45735;DHT22;31446;49.632;8.328;2023-02-14T13:07:15;4.40;99.90
45735;DHT22;31446;49.632;8.328;2023-02-14T13:22:30;4.20;99.90
45735;DHT22;31446;49.632;8.328;2023-02-14T13:37:38;4.30;99.90
45735;DHT22;31446;49.632;8.328;2023-02-14T13:52:46;4.30;99.90
45735;DHT22;31446;49.632;8.328;2023-02-14T14:23:35;4.20;99.90
45735;DHT22;31446;49.632;8.328;2023-02-14T14:38:48;4.30;99.90
45735;DHT22;31446;49.632;8.328;2023-02-14T14:53:58;4.20;99.90
45735;DHT22;31446;49.632;8.328;2023-02-14T15:09:14;4.00;99.90
45735;DHT22;31446;49.632;8.328;2023-02-14T15:24:21;4.00;99.90
45735;DHT22;31446;49.632;8.328;2023-02-14T15:39:32;4.00;99.90
45735;DHT22;31446;49.632;8.328;2023-02-14T15:54:43;3.70;99.90
45735;DHT22;31446;49.632;8.328;2023-02-14T16:10:12;3.60;99.90
45735;DHT22;31446;49.632;8.328;2023-02-14T16:25:17;3.70;99.90
45735;DHT22;31446;49.632;8.328;2023-02-14T16:40:25;3.60;99.90
45735;DHT22;31446;49.632;8.328;2023-02-14T16:55:33;3.30;99.90
45735;DHT22;31446;49.632;8.328;2023-02-14T17:10:40;3.20;99.90
45735;DHT22;31446;49.632;8.328;2023-02-14T17:25:47;3.00;99.90
45735;DHT22;31446;49.632;8.328;2023-02-14T17:40:53;3.30;99.90
45735;DHT22;31446;49.632;8.328;2023-02-14T17:56:02;2.80;99.90
45735;DHT22;31446;49.632;8.328;2023-02-14T18:11:11;3.30;99.90
45735;DHT22;31446;49.632;8.328;2023-02-14T18:26:18;2.80;99.90
45735;DHT22;31446;49.632;8.328;2023-02-14T18:41:25;2.90;99.90
45735;DHT22;31446;49.632;8.328;2023-02-14T18:56:33;2.60;99.90
45735;DHT22;31446;49.632;8.328;2023-02-14T19:11:40;2.70;99.90
45735;DHT22;31446;49.632;8.328;2023-02-14T19:26:49;2.50;99.90
45735;DHT22;31446;49.632;8.328;2023-02-14T19:41:56;2.50;99.90
45735;DHT22;31446;49.632;8.328;2023-02-14T19:57:02;2.50;99.90
45735;DHT22;31446;49.632;8.328;2023-02-14T20:12:09;2.50;99.90
45735;DHT22;31446;49.632;8.328;2023-02-14T20:27:16;2.40;99.90
45735;DHT22;31446;49.632;8.328;2023-02-14T20:42:22;2.30;99.90
45735;DHT22;31446;49.632;8.328;2023-02-14T20:57:28;2.10;99.90
45735;DHT22;31446;49.632;8.328;2023-02-14T21:12:35;2.00;99.90
45735;DHT22;31446;49.632;8.328;2023-02-14T21:27:41;2.00;99.90
45735;DHT22;31446;49.632;8.328;2023-02-14T21:42:55;2.10;99.90
45735;DHT22;31446;49.632;8.328;2023-02-14T21:58:15;2.20;99.90
45735;DHT22;31446;49.632;8.328;2023-02-14T22:13:21;2.30;99.90
45735;DHT22;31446;49.632;8.328;2023-02-14T22:28:27;2.40;99.90
45735;DHT22;31446;49.632;8.328;2023-02-14T22:43:33;2.30;99.90
45735;DHT22;31446;49.632;8.328;2023-02-14T22:58:40;2.30;99.90
45735;DHT22;31446;49.632;8.328;2023-02-14T23:13:46;2.20;99.90
45735;DHT22;31446;49.632;8.328;2023-02-14T23:29:05;2.10;99.90
45735;DHT22;31446;49.632;8.328;2023-02-14T23:44:11;2.20;99.90
45735;DHT22;31446;49.632;8.328;2023-02-14T23:59:18;2.40;99.90
